CDT,Max TemperatureF,Mean TemperatureF,Min TemperatureF,Max Dew PointF,MeanDew PointF,Min DewpointF,Max Humidity, Mean Humidity, Min Humidity, Max Sea Level PressureIn, Mean Sea Level PressureIn, Min Sea Level PressureIn, Max VisibilityMiles, Mean VisibilityMiles, Min VisibilityMiles, Max Wind SpeedMPH, Mean Wind SpeedMPH, Max Gust SpeedMPH,PrecipitationIn, CloudCover, Events, WindDirDegrees
2013-6-1,68,64,59,64,58,52,100,80,60,29.85,29.69,29.62,10,10,6,21,11,34,0.03,4,Rain,244
2013-6-2,62,55,48,54,44,41,93,69,45,30.06,30.00,29.85,10,10,5,21,14,26,0.00,4,,354
2013-6-3,69,58,46,50,44,39,93,59,35,30.11,30.05,30.00,10,10,10,12,4,16,0.00,1,,128
2013-6-4,59,57,55,54,51,48,82,78,67,30.16,30.08,30.04,10,9,4,20,10,25,0.15,7,Rain,110
2013-6-5,64,60,55,61,57,52,100,92,82,30.07,29.99,29.93,10,6,0,16,9,23,0.08,7,Fog-Rain,119
2013-6-6,66,62,57,59,57,54,100,88,68,29.98,29.93,29.90,10,7,0,13,6,,0.00,8,Fog,26
2013-6-7,66,60,55,55,54,52,94,82,60,30.02,29.98,29.94,10,10,7,10,5,16,0.00,7,Rain,9
2013-6-8,71,61,51,57,54,50,100,73,53,29.96,29.93,29.89,10,9,1,20,4,25,0.00,4,,147
2013-6-9,71,66,62,63,58,52,94,78,64,29.89,29.81,29.76,10,10,10,24,17,30,0.00,7,,130
2013-6-10,77,67,57,61,60,57,100,80,54,29.90,29.85,29.79,10,6,1,10,5,15,0.00,6,,341
2013-6-11,86,72,59,68,63,59,100,71,40,29.92,29.88,29.80,10,6,1,15,6,20,0.00,2,,150
2013-6-12,82,75,68,73,68,64,94,84,66,29.92,29.77,29.65,10,9,1,26,11,32,1.76,6,Rain,79
2013-6-13,77,70,62,64,59,54,100,69,44,30.07,30.01,29.84,10,10,6,18,10,18,0.00,1,,2
2013-6-14,77,68,59,61,58,55,94,71,50,30.13,30.05,29.92,10,10,10,23,10,28,0.00,1,,135
2013-6-15,78,71,64,70,66,61,100,83,65,30.02,29.94,29.86,10,10,7,21,10,30,0.02,4,Rain,197
2013-6-16,84,73,62,64,56,45,100,59,25,29.97,29.95,29.92,10,9,2,15,8,22,0.00,1,,290
2013-6-17,86,74,62,57,54,50,77,50,29,29.98,29.94,29.90,10,10,10,18,8,25,0.00,0,,296
2013-6-18,77,70,62,57,56,54,82,64,44,30.08,30.03,29.95,10,10,10,18,10,21,0.00,2,,71
2013-6-19,82,70,59,59,55,48,82,58,39,30.14,30.08,30.03,10,10,10,15,10,21,0.00,1,,148
2013-6-20,89,76,64,66,61,57,83,58,40,30.10,30.05,29.98,10,10,10,25,12,34,0.00,1,,160
2013-6-21,82,73,64,73,67,63,94,78,65,30.08,29.97,29.90,10,9,0,28,17,33,1.63,4,Rain,151
2013-6-22,87,78,68,75,71,64,94,81,66,30.01,29.94,29.85,10,10,8,28,14,38,0.00,4,,160
2013-6-23,80,74,68,73,67,63,94,80,61,30.00,29.93,29.84,10,10,3,23,14,30,0.13,3,Rain,176
2013-6-24,73,70,66,70,66,64,94,89,83,30.03,29.94,29.85,10,10,2,22,10,31,0.24,5,Rain,172
2013-6-25,84,76,68,75,70,64,100,86,66,29.89,29.82,29.75,10,9,2,20,9,25,0.47,4,Rain,161
2013-6-26,82,74,66,75,69,64,94,84,70,29.84,29.77,29.71,10,9,1,26,9,33,1.70,4,Rain,210
2013-6-27,84,75,66,70,64,55,94,71,39,29.89,29.85,29.83,10,10,10,28,10,36,0.00,0,,290
2013-6-28,78,71,64,63,60,57,88,67,50,29.85,29.79,29.73,10,10,2,28,14,37,0.08,3,Rain,310
2013-6-29,71,66,62,64,61,57,100,84,68,29.91,29.79,29.72,10,10,3,23,12,31,0.02,5,Rain,349
2013-6-30,75,67,59,59,53,48,83,61,38,30.10,30.01,29.91,10,10,10,18,12,23,0.00,2,,14